Terminal Aerodrome Forecast
Issued by NWS

Home | Current Version | Previous Version | Text Only | Print | Product List | Glossary On
Versions: 1 2 3 4 5 6 7 8 9 10 11 12 13 14 15 16 17 18 19
000
FTUS41 KCAR 012320
TAFHUL
TAF
KHUL 012320Z 0200/0224 32010G15KT P6SM SKC
     FM020200 31003KT P6SM SKC
     FM021700 24005KT P6SM BKN100
     FM022100 19006KT 5SM -RASN OVC035=

USA.gov is the U.S. government's official web portal to all federal, state and local government web resources and services.